createdAt,value
2018-02-22T00:01:07.294Z,50.87
2018-02-22T00:03:34.861Z,56.70
2018-02-22T00:06:02.562Z,43.07
2018-02-22T00:08:30.386Z,44.47
2018-02-22T00:10:58.046Z,51.83
2018-02-22T00:13:25.589Z,47.30
2018-02-22T00:15:53.166Z,51.87
2018-02-22T00:18:20.690Z,48.53
2018-02-22T00:20:49.018Z,44.63
2018-02-22T00:23:16.803Z,45.97
2018-02-22T00:25:44.392Z,42.63
2018-02-22T00:28:11.949Z,47.43
2018-02-22T00:30:39.514Z,50.80
2018-02-22T00:33:07.889Z,47.10
2018-02-22T00:35:35.463Z,49.80
2018-02-22T00:38:04.446Z,40.50
2018-02-22T00:40:34.826Z,48.13
2018-02-22T00:43:03.771Z,45.60
2018-02-22T00:55:12.172Z,41.67
2018-02-22T00:57:40.403Z,43.73
2018-02-22T01:00:07.941Z,46.17
2018-02-22T01:02:36.366Z,49.60
2018-02-22T01:05:07.538Z,44.03
2018-02-22T01:07:35.055Z,49.53
2018-02-22T01:10:06.688Z,51.73
2018-02-22T01:12:35.086Z,48.77
2018-02-22T01:15:03.836Z,37.77
2018-02-22T01:17:32.741Z,51.00
2018-02-22T01:20:00.302Z,53.90
2018-02-22T01:22:27.887Z,50.53
2018-02-22T01:24:55.445Z,51.20
2018-02-22T01:27:23.969Z,46.97
2018-02-22T01:29:51.488Z,44.63
2018-02-22T01:32:19.028Z,49.40
2018-02-22T01:34:47.284Z,44.00
2018-02-22T01:37:15.217Z,45.53
2018-02-22T01:39:43.506Z,43.23
2018-02-22T01:42:11.061Z,46.20
2018-02-22T01:44:38.618Z,48.90
2018-02-22T01:47:06.147Z,41.67
2018-02-22T01:49:33.724Z,48.30
2018-02-22T01:52:01.319Z,50.17
2018-02-22T01:54:29.487Z,46.83
2018-02-22T01:56:57.071Z,50.87
2018-02-22T01:59:24.611Z,51.27
2018-02-22T02:01:52.152Z,53.63
2018-02-22T02:04:20.666Z,48.83
2018-02-22T02:06:48.208Z,53.37
2018-02-22T02:09:15.736Z,48.60
2018-02-22T02:11:43.528Z,52.97
2018-02-22T02:14:11.553Z,54.77
2018-02-22T02:16:39.486Z,59.27
2018-02-22T02:19:07.027Z,53.03
2018-02-22T02:21:35.373Z,53.73
2018-02-22T02:24:02.909Z,54.70
2018-02-22T02:26:30.488Z,52.27
2018-02-22T02:28:58.536Z,58.37
2018-02-22T02:31:26.072Z,56.63
2018-02-22T02:33:53.640Z,61.30
2018-02-22T02:36:21.193Z,57.47
2018-02-22T02:38:48.742Z,57.70
2018-02-22T02:41:16.311Z,60.00
2018-02-22T02:43:43.847Z,62.27
2018-02-22T02:46:11.434Z,67.57
2018-02-22T02:48:38.966Z,67.23
2018-02-22T02:51:06.567Z,66.67
2018-02-22T02:53:34.111Z,76.33
2018-02-22T02:56:01.631Z,80.40
2018-02-22T02:58:29.206Z,72.73
2018-02-22T03:00:56.742Z,78.27
2018-02-22T03:03:25.695Z,83.23
2018-02-22T03:05:53.247Z,91.03
2018-02-22T03:08:21.209Z,74.73
2018-02-22T03:10:48.777Z,82.93
2018-02-22T03:13:16.542Z,73.73
2018-02-22T03:15:44.570Z,81.17
2018-02-22T03:18:12.907Z,88.67
2018-02-22T03:20:40.450Z,85.57
2018-02-22T03:23:08.374Z,78.83
2018-02-22T03:25:35.909Z,90.87
2018-02-22T03:28:03.488Z,85.47
2018-02-22T03:30:31.082Z,89.60
2018-02-22T03:32:58.619Z,94.73
2018-02-22T03:35:27.767Z,94.17
2018-02-22T03:37:55.282Z,90.50
2018-02-22T03:40:23.574Z,95.57
2018-02-22T03:42:51.156Z,87.43
2018-02-22T03:45:18.679Z,101.03
2018-02-22T03:47:47.031Z,96.10
2018-02-22T03:50:15.143Z,98.00
2018-02-22T03:52:42.723Z,103.67
2018-02-22T03:55:10.250Z,96.93
2018-02-22T03:57:37.784Z,99.60
2018-02-22T04:00:06.656Z,96.40
2018-02-22T04:02:34.250Z,104.70
2018-02-22T04:05:04.615Z,103.53
2018-02-22T04:07:32.487Z,97.87
2018-02-22T04:10:00.238Z,109.67
2018-02-22T04:12:27.797Z,100.30
2018-02-22T04:14:55.361Z,96.50
2018-02-22T04:17:23.188Z,100.97
2018-02-22T04:19:51.515Z,103.93
2018-02-22T04:22:25.068Z,107.00
2018-02-22T04:24:53.419Z,105.33
2018-02-22T04:27:21.182Z,111.07
2018-02-22T04:29:49.507Z,103.57
2018-02-22T04:32:17.097Z,108.30
2018-02-22T04:34:44.626Z,110.40
2018-02-22T04:37:12.979Z,102.07
2018-02-22T04:39:40.512Z,119.43
2018-02-22T04:42:08.831Z,113.77
2018-02-22T04:44:36.427Z,115.23
2018-02-22T04:47:03.968Z,116.87
2018-02-22T04:49:31.531Z,112.00
2018-02-22T04:51:59.120Z,120.53
2018-02-22T04:54:26.928Z,112.30
2018-02-22T04:56:55.228Z,112.03
2018-02-22T04:59:23.871Z,112.10
2018-02-22T05:01:51.865Z,112.20
2018-02-22T05:04:19.427Z,111.97
2018-02-22T05:06:47.447Z,116.80
2018-02-22T05:09:15.028Z,120.97
2018-02-22T05:11:43.166Z,117.37
2018-02-22T05:14:10.803Z,114.20
2018-02-22T05:16:38.615Z,116.17
2018-02-22T05:19:06.138Z,115.10
2018-02-22T05:21:33.678Z,107.80
2018-02-22T05:24:01.240Z,117.53
2018-02-22T05:26:29.554Z,123.30
2018-02-22T05:28:57.122Z,121.37
2018-02-22T05:31:24.669Z,109.57
2018-02-22T05:33:53.156Z,115.90
2018-02-22T05:36:20.720Z,116.37
2018-02-22T05:38:48.261Z,114.60
2018-02-22T05:41:15.883Z,113.73
2018-02-22T05:43:43.944Z,116.43
2018-02-22T05:46:11.494Z,112.90
2018-02-22T05:48:39.900Z,101.37
2018-02-22T05:51:08.741Z,115.33
2018-02-22T05:53:36.297Z,106.50
2018-02-22T05:56:03.834Z,108.17
2018-02-22T05:58:31.356Z,111.33
2018-02-22T06:00:58.942Z,106.80
2018-02-22T06:03:27.232Z,103.20
2018-02-22T06:05:54.792Z,104.73
2018-02-22T06:08:22.380Z,112.47
2018-02-22T06:10:50.000Z,111.53
2018-02-22T06:13:18.455Z,106.57
2018-02-22T06:15:46.012Z,101.90
2018-02-22T06:18:14.035Z,115.70
2018-02-22T06:20:41.581Z,108.40
2018-02-22T06:23:09.156Z,112.37
2018-02-22T06:25:36.682Z,102.63
2018-02-22T06:28:05.011Z,104.63
2018-02-22T06:30:32.606Z,102.07
2018-02-22T06:33:00.926Z,97.77
2018-02-22T06:35:28.465Z,104.00
2018-02-22T06:37:56.467Z,104.70
2018-02-22T06:40:24.032Z,102.23
2018-02-22T06:42:51.586Z,105.77
2018-02-22T06:45:19.792Z,108.10
2018-02-22T06:47:48.054Z,100.33
2018-02-22T06:50:15.577Z,102.53
2018-02-22T06:52:44.382Z,101.43
2018-02-22T06:55:12.169Z,97.17
2018-02-22T06:57:39.766Z,98.23
2018-02-22T07:00:08.225Z,95.10
2018-02-22T07:02:35.852Z,112.23
2018-02-22T07:05:05.203Z,112.90
2018-02-22T07:07:33.993Z,122.37
2018-02-22T07:10:01.583Z,97.90
2018-02-22T07:12:29.148Z,101.43
2018-02-22T07:14:56.930Z,102.43
2018-02-22T07:17:24.456Z,92.87
2018-02-22T07:19:52.090Z,96.80
2018-02-22T07:22:19.628Z,104.33
2018-02-22T07:24:47.191Z,98.83
2018-02-22T07:27:15.736Z,90.80
2018-02-22T07:29:43.281Z,103.57
2018-02-22T07:32:11.748Z,103.53
2018-02-22T07:34:42.240Z,97.73
2018-02-22T07:37:09.795Z,87.80
2018-02-22T07:39:37.372Z,99.23
2018-02-22T07:42:04.947Z,98.40
2018-02-22T07:44:34.238Z,100.00
2018-02-22T07:47:01.802Z,94.37
2018-02-22T07:49:30.163Z,99.47
2018-02-22T07:51:57.746Z,95.57
2018-02-22T07:54:25.276Z,99.30
2018-02-22T07:56:53.331Z,102.40
2018-02-22T07:59:20.872Z,97.07
2018-02-22T08:01:49.033Z,94.50
2018-02-22T08:04:16.645Z,96.33
2018-02-22T08:06:44.250Z,92.57
2018-02-22T08:09:12.606Z,97.10
2018-02-22T08:11:40.165Z,92.00
2018-02-22T08:14:09.238Z,100.13
2018-02-22T08:16:36.797Z,95.63
2018-02-22T08:19:05.207Z,86.40
2018-02-22T08:21:32.760Z,89.27
2018-02-22T08:24:00.377Z,92.70
2018-02-22T08:26:28.164Z,93.00
2018-02-22T08:28:56.021Z,96.50
2018-02-22T08:31:24.356Z,96.80
2018-02-22T08:33:52.520Z,92.33
2018-02-22T08:36:20.724Z,91.50
2018-02-22T08:38:48.880Z,88.77
2018-02-22T08:41:16.399Z,95.87
2018-02-22T08:43:43.951Z,99.50
2018-02-22T08:46:11.651Z,86.20
2018-02-22T08:48:39.462Z,93.57
2018-02-22T08:51:07.029Z,88.27
2018-02-22T08:53:34.587Z,80.63
2018-02-22T08:56:02.189Z,89.07
2018-02-22T08:58:30.504Z,83.13
2018-02-22T09:00:58.105Z,89.03
2018-02-22T09:03:25.782Z,82.07
2018-02-22T09:05:54.829Z,89.93
2018-02-22T09:08:22.584Z,91.37
2018-02-22T09:10:50.131Z,85.77
2018-02-22T09:13:18.758Z,89.50
2018-02-22T09:15:46.354Z,88.17
2018-02-22T09:18:14.343Z,87.63
2018-02-22T09:20:43.162Z,94.87
2018-02-22T09:23:11.783Z,89.57
2018-02-22T09:25:40.245Z,83.40
2018-02-22T09:28:08.813Z,96.60
2018-02-22T09:30:36.389Z,79.97
2018-02-22T09:33:03.965Z,97.53
2018-02-22T09:35:31.915Z,101.70
2018-02-22T09:37:59.462Z,74.53
2018-02-22T09:40:26.996Z,83.20
2018-02-22T09:42:54.592Z,87.33
2018-02-22T09:45:22.129Z,94.43
2018-02-22T09:47:50.065Z,83.60
2018-02-22T09:50:17.625Z,83.00
2018-02-22T09:52:45.190Z,81.83
2018-02-22T09:55:14.284Z,86.10
2018-02-22T09:57:41.850Z,83.50
2018-02-22T10:00:10.156Z,78.73
2018-02-22T10:02:39.202Z,82.07
2018-02-22T10:05:08.671Z,74.97
2018-02-22T10:07:36.277Z,77.37
2018-02-22T10:10:04.709Z,76.27
2018-02-22T10:12:32.247Z,84.87
2018-02-22T10:14:59.782Z,82.57
2018-02-22T10:17:28.315Z,80.00
2018-02-22T10:19:55.856Z,85.43
2018-02-22T10:22:23.438Z,77.90
2018-02-22T10:24:50.998Z,75.60
2018-02-22T10:27:18.601Z,75.97
2018-02-22T10:29:46.150Z,85.93
2018-02-22T10:32:14.623Z,78.77
2018-02-22T10:34:42.687Z,87.23
2018-02-22T10:37:11.143Z,78.63
2018-02-22T10:39:39.897Z,80.87
2018-02-22T10:42:11.192Z,73.77
2018-02-22T10:44:38.802Z,72.43
2018-02-22T10:47:08.651Z,80.87
2018-02-22T10:49:38.876Z,85.37
2018-02-22T10:52:06.852Z,73.00
2018-02-22T10:54:34.566Z,73.20
2018-02-22T10:57:03.506Z,73.80
2018-02-22T10:59:32.491Z,72.37
2018-02-22T11:02:05.944Z,74.13
2018-02-22T11:04:33.492Z,73.33
2018-02-22T11:07:02.358Z,74.53
2018-02-22T11:09:29.938Z,72.60
2018-02-22T11:11:57.559Z,76.43
2018-02-22T11:14:25.095Z,77.50
2018-02-22T11:16:52.660Z,81.20
2018-02-22T11:19:20.263Z,80.23
2018-02-22T11:21:47.871Z,73.03
2018-02-22T11:24:16.202Z,75.73
2018-02-22T11:26:43.772Z,68.80
2018-02-22T11:29:11.333Z,69.00
2018-02-22T11:31:38.895Z,83.87
2018-02-22T11:34:06.436Z,71.03
2018-02-22T11:36:33.975Z,69.40
2018-02-22T11:39:02.293Z,74.00
2018-02-22T11:41:29.863Z,74.07
2018-02-22T11:43:58.172Z,77.37
2018-02-22T11:46:26.513Z,73.73
2018-02-22T11:48:54.101Z,69.00
2018-02-22T11:51:22.420Z,64.43
2018-02-22T11:53:50.187Z,68.40
2018-02-22T11:56:17.830Z,65.33
2018-02-22T11:58:45.368Z,68.77
2018-02-22T12:01:13.556Z,77.33
2018-02-22T12:03:41.082Z,70.43
2018-02-22T12:06:08.662Z,70.23
2018-02-22T12:08:36.189Z,74.70
2018-02-22T12:11:03.785Z,68.43
2018-02-22T12:13:32.087Z,69.43
2018-02-22T12:15:59.855Z,69.57
2018-02-22T12:18:27.397Z,61.97
2018-02-22T12:20:55.731Z,63.27
2018-02-22T12:23:23.666Z,71.10
2018-02-22T12:25:51.221Z,68.17
2018-02-22T12:28:19.742Z,75.30
2018-02-22T12:30:47.286Z,81.93
2018-02-22T12:33:15.167Z,72.20
2018-02-22T12:35:44.395Z,66.17
2018-02-22T12:38:11.942Z,79.20
2018-02-22T12:40:40.383Z,64.80
2018-02-22T12:43:08.033Z,76.87
2018-02-22T12:45:35.573Z,67.93
2018-02-22T12:48:03.106Z,71.47
2018-02-22T12:50:31.693Z,64.13
2018-02-22T12:52:59.224Z,73.93
2018-02-22T12:55:26.794Z,70.47
2018-02-22T12:57:54.401Z,79.57
2018-02-22T13:00:21.940Z,79.27
2018-02-22T13:02:50.267Z,74.30
2018-02-22T13:05:17.862Z,82.53
2018-02-22T13:07:45.395Z,83.83
2018-02-22T13:10:14.142Z,73.47
2018-02-22T13:12:41.702Z,74.93
2018-02-22T13:15:09.916Z,72.30
2018-02-22T13:17:37.978Z,77.97
2018-02-22T13:20:07.778Z,81.27
2018-02-22T13:22:35.327Z,79.93
2018-02-22T13:25:04.587Z,70.03
2018-02-22T13:27:32.137Z,70.07
2018-02-22T13:30:00.601Z,80.07
2018-02-22T13:32:29.269Z,76.53
2018-02-22T13:34:58.125Z,72.83
2018-02-22T13:37:48.451Z,68.70
2018-02-22T13:40:18.330Z,75.97
2018-02-22T13:42:48.469Z,78.37
2018-02-22T13:45:37.470Z,70.27
2018-02-22T13:48:07.401Z,74.83
2018-02-22T13:50:47.649Z,70.00
2018-02-22T13:53:16.094Z,71.17
2018-02-22T13:55:45.464Z,74.60
2018-02-22T13:58:15.709Z,76.73
2018-02-22T14:00:56.193Z,77.57
2018-02-22T14:03:25.517Z,78.27
2018-02-22T14:05:54.662Z,66.67
2018-02-22T14:08:43.425Z,70.07
2018-02-22T14:11:12.571Z,68.40
2018-02-22T14:13:40.590Z,68.33
2018-02-22T14:16:08.221Z,67.33
2018-02-22T14:18:36.457Z,75.30
2018-02-22T14:21:04.824Z,80.27
2018-02-22T14:23:36.837Z,71.03
2018-02-22T14:26:04.892Z,71.27
2018-02-22T14:28:34.779Z,72.27
2018-02-22T14:31:03.070Z,79.20
2018-02-22T14:43:12.012Z,65.00
2018-02-22T14:45:43.925Z,63.83
2018-02-22T14:48:12.750Z,68.13
2018-02-22T14:50:43.159Z,70.23
2018-02-22T14:53:13.023Z,63.23
2018-02-22T14:55:41.426Z,59.90
2018-02-22T14:58:10.294Z,66.40
2018-02-22T15:00:40.692Z,68.30
2018-02-22T15:03:09.282Z,64.80
2018-02-22T15:05:36.965Z,67.33
2018-02-22T15:08:04.519Z,68.47
2018-02-22T15:10:32.148Z,63.57
2018-02-22T15:12:59.689Z,59.70
2018-02-22T15:15:27.221Z,63.53
2018-02-22T15:17:54.808Z,58.10
2018-02-22T15:20:22.364Z,60.57
2018-02-22T15:22:49.991Z,70.03
2018-02-22T15:25:17.521Z,61.60
2018-02-22T15:27:46.244Z,57.80
2018-02-22T15:30:14.416Z,60.73
2018-02-22T15:32:41.984Z,64.77
2018-02-22T15:35:09.666Z,59.27
2018-02-22T15:37:38.004Z,57.20
2018-02-22T15:40:07.273Z,59.10
2018-02-22T15:42:35.713Z,62.80
2018-02-22T15:45:04.013Z,58.20
2018-02-22T15:47:32.007Z,56.10
2018-02-22T15:50:00.449Z,42.67
2018-02-22T15:52:28.025Z,50.10
2018-02-22T15:54:55.567Z,59.40
2018-02-22T15:57:24.338Z,52.60
2018-02-22T15:59:51.920Z,48.70
2018-02-22T16:02:19.461Z,47.70
2018-02-22T16:04:47.253Z,49.23
2018-02-22T16:07:14.780Z,47.30
2018-02-22T16:09:42.327Z,45.20
2018-02-22T16:12:10.221Z,45.40
2018-02-22T16:14:37.799Z,49.33
2018-02-22T16:17:05.331Z,58.33
2018-02-22T16:19:32.908Z,50.73
2018-02-22T16:22:00.447Z,45.70
2018-02-22T16:24:28.475Z,46.57
2018-02-22T16:26:56.111Z,51.33
2018-02-22T16:29:23.655Z,53.67
2018-02-22T16:31:51.324Z,47.43
2018-02-22T16:34:19.419Z,56.70
2018-02-22T16:36:46.954Z,48.30
2018-02-22T16:39:14.534Z,59.17
2018-02-22T16:41:42.084Z,55.07
2018-02-22T16:44:11.455Z,44.47
2018-02-22T16:46:39.023Z,43.70
2018-02-22T16:49:06.613Z,52.17
2018-02-22T16:51:35.280Z,53.27
2018-02-22T16:54:05.113Z,50.27
2018-02-22T16:56:36.010Z,54.13
2018-02-22T16:59:05.020Z,55.70
2018-02-22T17:01:33.269Z,55.70
2018-02-22T17:04:01.610Z,48.87
2018-02-22T17:06:29.211Z,56.27
2018-02-22T17:08:56.971Z,50.13
2018-02-22T17:11:24.499Z,54.17
2018-02-22T17:13:52.109Z,58.70
2018-02-22T17:16:19.642Z,58.80
2018-02-22T17:18:47.243Z,56.50
2018-02-22T17:21:15.257Z,56.80
2018-02-22T17:23:42.839Z,60.57
2018-02-22T17:26:16.805Z,61.20
2018-02-22T17:28:50.925Z,52.87
2018-02-22T17:31:24.062Z,53.60
2018-02-22T17:33:51.637Z,51.10
2018-02-22T17:36:20.823Z,44.53
2018-02-22T17:38:51.388Z,48.53
2018-02-22T17:41:20.512Z,49.80
2018-02-22T17:43:48.877Z,57.73
2018-02-22T17:46:16.500Z,47.60
2018-02-22T17:48:44.285Z,52.83
2018-02-22T17:51:11.855Z,52.20
2018-02-22T17:53:39.945Z,49.37
2018-02-22T17:56:07.887Z,52.67
2018-02-22T17:58:35.466Z,56.07
2018-02-22T18:01:03.718Z,54.83
2018-02-22T18:03:31.353Z,51.13
2018-02-22T18:05:58.953Z,55.70
2018-02-22T18:08:26.532Z,53.83
2018-02-22T18:10:54.127Z,49.90
2018-02-22T18:13:22.085Z,48.63
2018-02-22T18:15:49.646Z,46.83
2018-02-22T18:18:18.032Z,44.93
2018-02-22T18:20:46.570Z,49.60
2018-02-22T18:23:14.248Z,52.03
2018-02-22T18:25:42.613Z,50.87
2018-02-22T18:28:11.080Z,43.50
2018-02-22T18:30:38.709Z,47.70
2018-02-22T18:33:06.461Z,47.73
2018-02-22T18:35:34.003Z,50.97
2018-02-22T18:38:01.535Z,51.07
2018-02-22T18:40:34.819Z,56.30
2018-02-22T18:43:07.924Z,53.87
2018-02-22T18:45:35.501Z,68.77
2018-02-22T18:48:04.674Z,55.50
2018-02-22T18:50:32.300Z,49.47
2018-02-22T18:52:59.883Z,51.53
2018-02-22T18:55:27.672Z,53.03
2018-02-22T18:57:55.225Z,51.97
2018-02-22T19:00:23.128Z,58.07
2018-02-22T19:02:50.728Z,54.03
2018-02-22T19:05:18.329Z,60.33
2018-02-22T19:07:46.367Z,47.90
2018-02-22T19:10:13.901Z,46.17
2018-02-22T19:12:42.455Z,49.40
2018-02-22T19:15:10.863Z,56.90
2018-02-22T19:17:38.860Z,50.47
2018-02-22T19:20:07.808Z,51.60
2018-02-22T19:22:36.885Z,58.57
2018-02-22T19:25:06.832Z,55.30
2018-02-22T19:27:35.202Z,51.70
2018-02-22T19:30:03.782Z,48.30
2018-02-22T19:32:32.287Z,51.70
2018-02-22T19:34:59.824Z,52.20
2018-02-22T19:37:27.551Z,48.13
2018-02-22T19:39:55.087Z,53.60
2018-02-22T19:42:22.624Z,51.80
2018-02-22T19:44:50.222Z,56.60
2018-02-22T19:47:18.819Z,51.67
2018-02-22T19:49:46.342Z,54.27
2018-02-22T19:52:14.235Z,65.77
2018-02-22T19:54:41.845Z,54.83
2018-02-22T19:57:09.508Z,70.40
2018-02-22T19:59:37.335Z,60.47
2018-02-22T20:02:04.876Z,52.00
2018-02-22T20:04:32.517Z,82.40
2018-02-22T20:07:00.112Z,56.53
2018-02-22T20:09:27.905Z,56.50
2018-02-22T20:11:56.926Z,98.20
2018-02-22T20:14:24.567Z,51.50
2018-02-22T20:16:53.526Z,64.10
2018-02-22T20:19:22.654Z,59.40
2018-02-22T20:21:50.256Z,65.57
2018-02-22T20:24:18.343Z,58.63
2018-02-22T20:26:47.348Z,61.80
2018-02-22T20:29:14.969Z,58.17
2018-02-22T20:31:42.499Z,50.33
2018-02-22T20:34:11.594Z,49.93
2018-02-22T20:36:39.179Z,53.07
2018-02-22T20:39:06.741Z,50.53
2018-02-22T20:41:34.301Z,52.40
2018-02-22T20:44:01.898Z,47.70
2018-02-22T20:46:29.465Z,51.80
2018-02-22T20:48:57.025Z,52.57
2018-02-22T20:51:25.144Z,55.70
2018-02-22T20:53:52.786Z,54.20
2018-02-22T20:56:21.139Z,50.37
2018-02-22T20:58:48.720Z,47.47
2018-02-22T21:01:17.327Z,50.97
2018-02-22T21:03:45.782Z,54.60
2018-02-22T21:06:13.311Z,51.87
2018-02-22T21:08:41.668Z,52.40
2018-02-22T21:11:09.226Z,55.03
2018-02-22T21:13:36.792Z,49.97
2018-02-22T21:16:04.401Z,52.67
2018-02-22T21:18:31.930Z,50.67
2018-02-22T21:20:59.498Z,55.93
2018-02-22T21:23:27.081Z,53.17
2018-02-22T21:25:54.639Z,47.57
2018-02-22T21:28:22.213Z,61.03
2018-02-22T21:30:49.814Z,76.37
2018-02-22T21:33:17.456Z,81.03
2018-02-22T21:35:46.122Z,91.50
2018-02-22T21:38:13.692Z,74.07
2018-02-22T21:40:41.274Z,147.47
2018-02-22T21:43:08.862Z,120.03
2018-02-22T21:45:36.465Z,72.87
2018-02-22T21:48:04.865Z,80.87
2018-02-22T21:50:32.444Z,80.67
2018-02-22T21:53:00.062Z,134.53
2018-02-22T21:55:27.629Z,71.10
2018-02-22T21:57:55.194Z,146.43
2018-02-22T22:00:23.572Z,167.60
2018-02-22T22:02:52.847Z,73.40
2018-02-22T22:05:20.408Z,114.27
2018-02-22T22:07:48.748Z,96.40
2018-02-22T22:10:16.439Z,94.50
2018-02-22T22:12:44.029Z,89.27
2018-02-22T22:15:11.593Z,108.97
2018-02-22T22:17:40.614Z,226.60
2018-02-22T22:20:08.158Z,74.17
2018-02-22T22:22:35.776Z,59.27
2018-02-22T22:25:05.030Z,100.70
2018-02-22T22:27:32.653Z,98.37
2018-02-22T22:30:00.226Z,85.40
2018-02-22T22:32:27.778Z,63.57
2018-02-22T22:34:56.283Z,54.93
2018-02-22T22:37:23.806Z,136.33
2018-02-22T22:39:51.361Z,123.03
2018-02-22T22:42:19.865Z,179.93
2018-02-22T22:44:47.573Z,85.03
2018-02-22T22:47:15.118Z,101.00
2018-02-22T22:49:42.702Z,59.40
2018-02-22T22:52:11.311Z,78.00
2018-02-22T22:54:39.596Z,58.27
2018-02-22T22:57:07.176Z,153.03
2018-02-22T22:59:36.465Z,118.53
2018-02-22T23:02:05.075Z,110.10
2018-02-22T23:04:32.613Z,74.23
2018-02-22T23:07:01.029Z,143.07
2018-02-22T23:09:28.714Z,83.83
2018-02-22T23:11:56.246Z,90.77
2018-02-22T23:14:24.498Z,69.60
2018-02-22T23:16:52.807Z,63.83
2018-02-22T23:19:20.387Z,77.37
2018-02-22T23:21:47.924Z,61.90
2018-02-22T23:24:15.982Z,136.83
2018-02-22T23:26:43.566Z,95.27
2018-02-22T23:29:11.095Z,66.33
2018-02-22T23:31:38.724Z,88.90
2018-02-22T23:34:07.303Z,194.97
2018-02-22T23:36:35.626Z,91.17
2018-02-22T23:39:03.237Z,192.93
2018-02-22T23:41:50.263Z,100.07
2018-02-22T23:44:18.305Z,75.20
2018-02-22T23:46:45.945Z,94.17
2018-02-22T23:49:13.492Z,64.80
2018-02-22T23:51:41.063Z,100.90
2018-02-22T23:54:08.618Z,105.30
2018-02-22T23:56:36.160Z,159.87
2018-02-22T23:59:04.532Z,92.83
